Time;durP1;ratioP1;P1;durP2;ratioP2;P2;SDS_P1;SDS_P2;PMS_P1;PMS_P2;Temp;Humidity;BMP_temperature;BMP_pressure;BME280_temperature;BME280_humidity;BME280_pressure;Samples;Min_cycle;Max_cycle;Signal;HPM_P1;HPM_P2
2024/03/21 00:02:21;;;;;;;17.45;12.07;;;12.00;99.90;;;;;;4966273;28;20114;-79
2024/03/21 00:04:48;;;;;;;17.33;12.32;;;12.10;99.90;;;;;;4967617;28;20339;-79
2024/03/21 00:07:15;;;;;;;19.17;13.10;;;12.00;99.90;;;;;;4978435;28;20022;-79
2024/03/21 00:09:41;;;;;;;19.05;13.68;;;12.00;99.90;;;;;;4973929;28;20078;-79
2024/03/21 00:12:07;;;;;;;21.05;14.63;;;12.00;99.90;;;;;;4956508;28;20031;-79
2024/03/21 00:14:34;;;;;;;24.88;14.75;;;12.00;99.90;;;;;;4957203;28;20093;-79
2024/03/21 00:17:00;;;;;;;21.45;14.38;;;12.00;99.90;;;;;;4957002;28;20027;-79
2024/03/21 00:19:25;;;;;;;22.17;16.08;;;12.00;99.90;;;;;;4963150;28;20027;-79
2024/03/21 00:21:51;;;;;;;20.42;14.18;;;12.00;99.90;;;;;;4969030;28;20394;-79
2024/03/21 00:24:17;;;;;;;23.40;16.30;;;12.10;99.90;;;;;;4960882;28;20019;-79
2024/03/21 00:26:44;;;;;;;27.15;16.88;;;12.10;99.90;;;;;;4956894;28;20031;-79
2024/03/21 00:29:10;;;;;;;22.02;16.17;;;12.10;99.90;;;;;;4955886;28;20019;-79
2024/03/21 00:31:36;;;;;;;25.38;15.65;;;12.10;99.90;;;;;;4959463;28;20026;-79
2024/03/21 00:34:02;;;;;;;26.38;16.10;;;12.20;99.90;;;;;;4962544;28;20035;-79
2024/03/21 00:36:28;;;;;;;21.05;16.10;;;12.10;99.90;;;;;;4982930;28;20023;-79
2024/03/21 00:38:54;;;;;;;19.00;14.15;;;12.10;99.90;;;;;;4962179;28;20027;-79
2024/03/21 00:41:20;;;;;;;20.65;14.77;;;12.10;99.90;;;;;;4970554;28;20038;-79
2024/03/21 00:43:47;;;;;;;24.73;13.95;;;12.10;99.90;;;;;;4961338;28;20115;-79
2024/03/21 00:46:13;;;;;;;23.45;13.70;;;12.10;99.90;;;;;;4955111;28;20062;-79
2024/03/21 00:48:38;;;;;;;24.92;13.80;;;12.00;99.90;;;;;;4957867;28;20043;-79
2024/03/21 00:51:04;;;;;;;19.13;12.85;;;12.00;99.90;;;;;;4970568;28;20505;-79
2024/03/21 00:53:31;;;;;;;23.10;14.65;;;12.00;99.90;;;;;;4957012;28;20027;-79
2024/03/21 00:55:57;;;;;;;16.75;12.77;;;12.00;99.90;;;;;;4969769;28;20027;-79
2024/03/21 00:58:24;;;;;;;19.73;13.40;;;12.00;99.90;;;;;;4957120;28;20019;-78
2024/03/21 01:00:50;;;;;;;16.75;12.73;;;11.80;99.90;;;;;;4970603;28;20110;-80
2024/03/21 01:03:15;;;;;;;16.95;12.07;;;11.80;99.90;;;;;;4974735;28;20122;-79
2024/03/21 01:05:43;;;;;;;19.30;13.20;;;11.80;99.90;;;;;;4976522;28;20092;-79
2024/03/21 01:08:09;;;;;;;17.13;11.27;;;11.70;99.90;;;;;;4959208;28;20517;-79
2024/03/21 01:10:34;;;;;;;15.38;11.73;;;11.60;99.90;;;;;;4951469;28;20016;-79
2024/03/21 01:13:00;;;;;;;21.92;14.50;;;11.60;99.90;;;;;;4958152;28;20036;-79
2024/03/21 01:15:26;;;;;;;18.30;12.00;;;11.60;99.90;;;;;;4970061;28;20528;-79
2024/03/21 01:17:52;;;;;;;20.65;13.18;;;11.60;99.90;;;;;;4959205;28;20038;-79
2024/03/21 01:20:21;;;;;;;14.75;11.77;;;11.60;99.90;;;;;;4968148;28;20023;-79
2024/03/21 01:22:47;;;;;;;19.33;13.07;;;11.60;99.90;;;;;;4957181;28;20517;-80
2024/03/21 01:25:14;;;;;;;19.70;13.65;;;11.60;99.90;;;;;;4966889;28;20035;-78
2024/03/21 01:27:40;;;;;;;19.25;13.02;;;11.60;99.90;;;;;;4969513;28;20039;-79
2024/03/21 01:30:06;;;;;;;18.27;12.38;;;11.60;99.90;;;;;;4958253;28;20031;-79
2024/03/21 01:32:32;;;;;;;19.83;14.25;;;11.60;99.90;;;;;;4956511;28;20023;-79
2024/03/21 01:34:57;;;;;;;61.65;33.40;;;11.60;99.90;;;;;;4979864;28;20162;-79
2024/03/21 01:37:23;;;;;;;39.05;27.30;;;11.60;99.90;;;;;;4966959;28;20026;-79
2024/03/21 01:39:49;;;;;;;42.88;24.67;;;11.60;99.90;;;;;;4969808;28;20030;-79
2024/03/21 01:42:19;;;;;;;31.25;20.48;;;11.60;99.90;;;;;;4976283;28;20034;-79
2024/03/21 01:45:00;;;;;;;25.92;15.80;;;11.60;99.90;;;;;;4971146;28;20118;-79
2024/03/21 01:47:27;;;;;;;22.98;16.13;;;11.60;99.90;;;;;;4961106;28;20020;-79
2024/03/21 01:49:54;;;;;;;21.80;15.18;;;11.60;99.90;;;;;;4964712;28;20015;-79
2024/03/21 01:52:21;;;;;;;18.77;14.38;;;11.50;99.90;;;;;;4962471;28;20022;-79
2024/03/21 01:54:47;;;;;;;25.92;16.15;;;11.50;99.90;;;;;;4957369;28;20039;-80
2024/03/21 01:57:13;;;;;;;42.08;23.77;;;11.50;99.90;;;;;;4967638;28;20031;-79
2024/03/21 01:59:39;;;;;;;30.42;19.83;;;11.60;99.90;;;;;;4973518;28;20029;-79
2024/03/21 02:02:05;;;;;;;28.08;19.08;;;11.60;99.90;;;;;;4969362;28;20030;-79
2024/03/21 02:04:32;;;;;;;26.95;17.85;;;11.60;99.90;;;;;;4955385;28;20119;-80
2024/03/21 02:06:57;;;;;;;27.70;18.10;;;11.60;99.90;;;;;;4962436;28;20053;-79
2024/03/21 02:09:25;;;;;;;30.08;20.45;;;11.60;99.90;;;;;;4962379;28;20477;-79
2024/03/21 02:11:51;;;;;;;34.20;20.55;;;11.60;99.90;;;;;;4963037;28;20058;-79
2024/03/21 02:14:19;;;;;;;33.50;21.30;;;11.60;99.90;;;;;;4962898;28;20490;-79
2024/03/21 02:16:46;;;;;;;31.27;20.92;;;11.60;99.90;;;;;;4961562;28;20054;-79
2024/03/21 02:19:11;;;;;;;32.28;20.48;;;11.60;99.90;;;;;;4963730;28;20077;-80
2024/03/21 02:24:22;;;;;;;26.20;18.90;;;11.60;99.90;;;;;;4959817;28;20038;-79
2024/03/21 02:26:47;;;;;;;32.10;21.33;;;11.60;99.90;;;;;;4957539;28;20386;-79
2024/03/21 02:29:13;;;;;;;28.05;19.00;;;11.60;99.90;;;;;;4961296;28;20038;-79
2024/03/21 02:31:40;;;;;;;28.95;18.67;;;11.50;99.90;;;;;;4957808;28;20459;-79
2024/03/21 02:34:06;;;;;;;28.27;20.25;;;11.50;99.90;;;;;;4963519;28;20037;-79
2024/03/21 02:36:31;;;;;;;29.33;18.83;;;11.50;99.90;;;;;;4972288;28;20392;-79
2024/03/21 02:39:03;;;;;;;24.00;17.35;;;11.50;99.90;;;;;;4974026;28;20041;-79
2024/03/21 02:41:29;;;;;;;22.45;17.08;;;11.40;99.90;;;;;;4981889;28;20030;-79
2024/03/21 02:43:58;;;;;;;25.95;17.67;;;11.40;99.90;;;;;;4972013;28;20027;-79
2024/03/21 02:46:24;;;;;;;27.77;18.35;;;11.40;99.90;;;;;;4973591;28;20019;-79
2024/03/21 02:48:50;;;;;;;25.85;18.17;;;11.40;99.90;;;;;;4956032;28;20386;-80
2024/03/21 02:51:16;;;;;;;29.50;18.98;;;11.40;99.90;;;;;;4962836;28;20058;-79
2024/03/21 02:53:41;;;;;;;23.52;17.30;;;11.40;99.90;;;;;;4965155;28;20074;-79
2024/03/21 02:56:07;;;;;;;23.85;16.65;;;11.40;99.90;;;;;;4963537;28;20078;-79
2024/03/21 02:58:32;;;;;;;32.15;21.00;;;11.40;99.90;;;;;;4961226;28;20103;-79
2024/03/21 03:00:58;;;;;;;27.63;19.38;;;11.40;99.90;;;;;;4952328;28;20050;-80
2024/03/21 03:03:24;;;;;;;28.73;20.48;;;11.40;99.90;;;;;;4956804;28;20061;-79
2024/03/21 03:05:49;;;;;;;32.28;21.20;;;11.40;99.90;;;;;;4969187;28;20035;-80
2024/03/21 03:08:15;;;;;;;34.53;22.02;;;11.40;99.90;;;;;;4970944;28;20034;-79
2024/03/21 03:10:40;;;;;;;34.13;22.42;;;11.50;99.90;;;;;;4958882;28;20593;-79
2024/03/21 03:13:06;;;;;;;32.72;19.98;;;11.50;99.90;;;;;;4984536;28;20110;-79
2024/03/21 03:15:32;;;;;;;30.98;19.83;;;11.50;99.90;;;;;;4971694;28;20030;-79
2024/03/21 03:17:59;;;;;;;28.55;17.55;;;11.50;99.90;;;;;;4955770;28;20054;-79
2024/03/21 03:20:25;;;;;;;31.55;18.33;;;11.50;99.90;;;;;;4964793;28;20026;-79
2024/03/21 03:22:51;;;;;;;25.65;17.73;;;11.60;99.90;;;;;;4970247;28;20034;-79
2024/03/21 03:25:16;;;;;;;27.50;17.40;;;11.60;99.90;;;;;;4973371;28;20050;-79
2024/03/21 03:27:43;;;;;;;29.13;15.95;;;11.60;99.90;;;;;;4976031;28;20031;-79
2024/03/21 03:30:09;;;;;;;23.58;15.60;;;11.70;99.90;;;;;;4966861;28;20102;-79
2024/03/21 03:32:37;;;;;;;29.63;16.98;;;11.70;99.90;;;;;;4960904;28;20490;-79
2024/03/21 03:37:47;;;;;;;27.70;17.45;;;11.80;99.90;;;;;;4955044;29;20501;-79
2024/03/21 03:40:14;;;;;;;26.23;16.13;;;11.80;99.90;;;;;;4976968;28;20031;-79
2024/03/21 03:42:39;;;;;;;30.13;16.50;;;11.70;99.90;;;;;;4953311;29;20028;-79
2024/03/21 03:45:05;;;;;;;28.73;18.40;;;11.80;99.90;;;;;;4952384;28;20034;-79
2024/03/21 03:47:31;;;;;;;23.67;15.70;;;11.80;99.90;;;;;;4966827;28;20043;-80
2024/03/21 03:49:58;;;;;;;27.45;18.40;;;11.80;99.90;;;;;;4952188;28;20054;-80
2024/03/21 03:52:24;;;;;;;32.10;19.42;;;11.80;99.90;;;;;;4952244;28;20031;-79
2024/03/21 03:54:50;;;;;;;33.03;19.70;;;11.70;99.90;;;;;;4950271;29;20031;-79
2024/03/21 03:57:19;;;;;;;26.00;17.67;;;11.70;99.90;;;;;;4956324;28;20031;-80
2024/03/21 03:59:45;;;;;;;23.95;17.88;;;11.80;99.90;;;;;;4967985;28;20042;-79
2024/03/21 04:02:10;;;;;;;29.05;17.50;;;11.80;99.90;;;;;;4967042;28;20027;-80
2024/03/21 04:04:39;;;;;;;29.20;18.85;;;11.70;99.90;;;;;;4968953;28;20058;-79
2024/03/21 04:07:05;;;;;;;28.23;19.13;;;11.70;99.90;;;;;;4962270;28;20022;-80
2024/03/21 04:09:31;;;;;;;28.17;19.25;;;11.70;99.90;;;;;;4955217;28;20023;-80
2024/03/21 04:11:56;;;;;;;26.38;18.40;;;11.60;99.90;;;;;;4965821;28;20035;-79
2024/03/21 04:14:22;;;;;;;27.58;18.83;;;11.60;99.90;;;;;;4984847;28;20115;-80
2024/03/21 04:16:48;;;;;;;33.45;20.48;;;11.60;99.90;;;;;;4969563;28;20035;-80
2024/03/21 04:19:13;;;;;;;28.20;18.58;;;11.60;99.90;;;;;;4982846;28;20023;-79
2024/03/21 04:21:39;;;;;;;29.73;18.55;;;11.50;99.90;;;;;;4961529;28;20027;-80
2024/03/21 04:24:11;;;;;;;25.63;18.33;;;11.50;99.90;;;;;;4963209;28;20026;-79
2024/03/21 04:26:37;;;;;;;26.77;17.25;;;11.50;99.90;;;;;;4985842;28;20030;-79
2024/03/21 04:29:03;;;;;;;22.00;16.70;;;11.40;99.90;;;;;;4983164;28;20024;-79
2024/03/21 04:31:32;;;;;;;27.05;18.83;;;11.40;99.90;;;;;;4970078;28;20043;-79
2024/03/21 04:34:01;;;;;;;23.95;17.48;;;11.40;99.90;;;;;;4956600;28;20227;-79
2024/03/21 04:36:29;;;;;;;25.80;16.98;;;11.30;99.90;;;;;;4958183;28;20023;-79
2024/03/21 04:38:55;;;;;;;26.13;18.48;;;11.30;99.90;;;;;;4962626;28;20032;-79
2024/03/21 04:41:21;;;;;;;27.67;19.35;;;11.30;99.90;;;;;;4969119;28;20026;-79
2024/03/21 04:43:46;;;;;;;27.92;17.85;;;11.30;99.90;;;;;;4978558;28;20062;-79
2024/03/21 04:46:12;;;;;;;22.08;16.77;;;11.20;99.90;;;;;;4967959;28;20027;-80
2024/03/21 04:48:37;;;;;;;32.22;20.08;;;11.20;99.90;;;;;;4964877;28;20027;-79
2024/03/21 04:51:03;;;;;;;29.38;19.67;;;11.20;99.90;;;;;;4984023;28;20023;-79
2024/03/21 04:53:30;;;;;;;34.42;22.77;;;11.20;99.90;;;;;;4952060;28;20020;-80
2024/03/21 04:55:56;;;;;;;28.20;20.45;;;11.20;99.90;;;;;;4974575;28;20540;-79
2024/03/21 04:58:24;;;;;;;34.30;21.65;;;11.20;99.90;;;;;;4978929;28;20494;-80
2024/03/21 05:00:50;;;;;;;30.58;20.25;;;11.20;99.90;;;;;;4957184;28;20027;-79
2024/03/21 05:03:16;;;;;;;32.78;21.42;;;11.10;99.90;;;;;;4964421;28;20042;-79
2024/03/21 05:05:43;;;;;;;33.50;21.20;;;11.10;99.90;;;;;;4966428;28;20023;-79
2024/03/21 05:08:09;;;;;;;30.50;21.05;;;11.10;99.90;;;;;;4987300;28;20038;-79
2024/03/21 05:10:35;;;;;;;34.97;23.65;;;11.00;99.90;;;;;;4972748;28;20019;-79
2024/03/21 05:13:00;;;;;;;34.13;22.77;;;11.00;99.90;;;;;;4965697;28;20154;-79
2024/03/21 05:15:26;;;;;;;39.60;24.42;;;11.00;99.90;;;;;;4958417;28;20027;-80
2024/03/21 05:17:51;;;;;;;38.40;23.27;;;10.90;99.90;;;;;;4960112;28;20035;-79
2024/03/21 05:20:20;;;;;;;39.13;25.60;;;10.90;99.90;;;;;;4964042;28;20038;-79
2024/03/21 05:22:46;;;;;;;37.70;23.58;;;10.80;99.90;;;;;;4975561;28;20081;-78
2024/03/21 05:25:12;;;;;;;40.53;26.10;;;10.90;99.90;;;;;;4965471;28;20031;-79
2024/03/21 05:27:38;;;;;;;35.45;23.80;;;10.80;99.90;;;;;;4986767;28;20642;-80
2024/03/21 05:30:07;;;;;;;45.25;28.60;;;10.80;99.90;;;;;;4974418;28;20434;-79
2024/03/21 05:32:33;;;;;;;41.03;27.17;;;10.80;99.90;;;;;;4971524;28;20015;-78
2024/03/21 05:35:02;;;;;;;39.05;26.63;;;10.70;99.90;;;;;;4975651;28;20086;-78
2024/03/21 05:37:28;;;;;;;42.03;28.50;;;10.70;99.90;;;;;;4972625;28;20078;-79
2024/03/21 05:39:54;;;;;;;44.72;30.45;;;10.70;99.90;;;;;;4979274;28;20030;-80
2024/03/21 05:42:20;;;;;;;41.28;29.20;;;10.80;99.90;;;;;;4977459;28;20022;-79
2024/03/21 05:44:45;;;;;;;41.65;28.77;;;10.80;99.90;;;;;;4958535;28;20027;-80
2024/03/21 05:47:22;;;;;;;48.33;33.60;;;10.80;99.90;;;;;;4974423;28;20031;-79
2024/03/21 05:49:49;;;;;;;54.55;35.10;;;10.80;99.90;;;;;;4963773;28;20443;-80
2024/03/21 05:52:15;;;;;;;51.60;33.95;;;10.80;99.90;;;;;;4981134;28;20027;-79
2024/03/21 05:54:41;;;;;;;47.92;32.47;;;10.80;99.90;;;;;;4978032;28;20031;-79
2024/03/21 05:57:07;;;;;;;52.33;34.60;;;10.80;99.90;;;;;;4963648;28;20031;-80
2024/03/21 05:59:34;;;;;;;48.88;33.05;;;10.90;99.90;;;;;;4972258;28;20463;-80
2024/03/21 06:01:59;;;;;;;52.10;34.22;;;10.90;99.90;;;;;;4971056;28;20085;-80
2024/03/21 06:04:25;;;;;;;55.85;35.63;;;10.90;99.90;;;;;;4960983;28;20027;-80
2024/03/21 06:06:50;;;;;;;54.00;34.67;;;10.90;99.90;;;;;;4967995;28;20023;-80
2024/03/21 06:09:20;;;;;;;53.10;34.50;;;10.90;99.90;;;;;;4978212;28;20031;-80
2024/03/21 06:11:46;;;;;;;60.83;37.55;;;10.90;99.90;;;;;;4979984;28;20027;-80
2024/03/21 06:14:11;;;;;;;52.15;34.08;;;10.80;99.90;;;;;;4976997;28;20643;-79
2024/03/21 06:16:37;;;;;;;58.72;37.67;;;10.80;99.90;;;;;;4978085;28;20505;-79
2024/03/21 06:19:03;;;;;;;55.95;35.38;;;10.90;99.90;;;;;;4976586;28;20106;-80
2024/03/21 06:21:29;;;;;;;60.38;38.25;;;10.90;99.90;;;;;;4958062;28;20024;-79
2024/03/21 06:23:54;;;;;;;64.45;39.95;;;10.80;99.90;;;;;;4965108;28;20023;-81
2024/03/21 06:26:20;;;;;;;72.57;43.90;;;10.80;99.90;;;;;;4975376;28;20023;-80
2024/03/21 06:28:46;;;;;;;69.68;41.55;;;10.70;99.90;;;;;;4967503;28;20478;-79
2024/03/21 06:31:11;;;;;;;69.13;42.38;;;10.70;99.90;;;;;;4957389;28;20110;-81
2024/03/21 06:33:38;;;;;;;68.60;43.97;;;10.70;99.90;;;;;;4966044;28;20019;-81
2024/03/21 06:36:04;;;;;;;60.88;40.15;;;10.70;99.90;;;;;;4991638;28;20093;-81
2024/03/21 06:38:30;;;;;;;63.38;40.08;;;10.70;99.90;;;;;;4963830;28;20023;-79
2024/03/21 06:40:56;;;;;;;80.03;47.95;;;10.80;99.90;;;;;;4972823;28;20035;-81
2024/03/21 06:43:22;;;;;;;82.28;48.53;;;10.70;99.90;;;;;;4974665;28;20082;-80
2024/03/21 06:45:55;;;;;;;78.18;47.78;;;10.70;99.90;;;;;;4982696;28;20401;-81
2024/03/21 06:48:21;;;;;;;89.40;52.70;;;10.70;99.90;;;;;;4965896;28;20018;-80
2024/03/21 06:50:47;;;;;;;84.43;49.72;;;10.70;99.90;;;;;;4974609;28;20127;-79
2024/03/21 06:53:12;;;;;;;83.63;49.35;;;10.70;99.90;;;;;;4978577;28;20061;-80
2024/03/21 06:55:38;;;;;;;82.43;49.58;;;10.60;99.90;;;;;;4988340;28;20529;-81
2024/03/21 06:58:04;;;;;;;87.65;53.13;;;10.60;99.90;;;;;;4959601;28;20031;-79
2024/03/21 07:00:32;;;;;;;92.85;53.25;;;10.60;99.90;;;;;;4990254;28;20022;-80
2024/03/21 07:02:59;;;;;;;79.95;47.83;;;10.60;99.90;;;;;;4965634;28;20113;-80
2024/03/21 07:05:25;;;;;;;85.18;50.13;;;10.70;99.90;;;;;;4960718;28;20097;-79
2024/03/21 07:07:55;;;;;;;88.07;49.42;;;10.70;99.90;;;;;;4959838;28;20030;-79
2024/03/21 07:10:24;;;;;;;87.10;50.65;;;10.70;99.90;;;;;;4974820;28;20500;-80
2024/03/21 07:12:50;;;;;;;92.22;52.10;;;10.70;99.90;;;;;;4961389;28;20438;-79
2024/03/21 07:15:16;;;;;;;87.97;51.00;;;10.70;99.90;;;;;;4962608;28;20035;-80
2024/03/21 07:17:43;;;;;;;88.85;49.25;;;10.80;99.90;;;;;;4960449;28;20089;-80
2024/03/21 07:20:12;;;;;;;84.03;49.30;;;10.80;99.90;;;;;;4963802;28;20024;-80
2024/03/21 07:22:38;;;;;;;84.03;50.65;;;10.80;99.90;;;;;;4962209;28;20330;-80
2024/03/21 07:25:06;;;;;;;74.95;46.75;;;10.80;99.90;;;;;;4957807;28;20023;-80
2024/03/21 07:27:32;;;;;;;81.75;49.15;;;10.90;99.90;;;;;;4967565;28;20058;-80
2024/03/21 07:29:58;;;;;;;88.47;49.60;;;10.90;99.90;;;;;;4974477;28;20035;-80
2024/03/21 07:32:23;;;;;;;84.30;50.00;;;10.80;99.90;;;;;;4965283;28;20020;-80
2024/03/21 07:34:52;;;;;;;80.10;48.33;;;10.80;99.90;;;;;;4960329;28;20027;-79
2024/03/21 07:37:17;;;;;;;79.78;49.72;;;10.80;99.90;;;;;;4980319;28;20027;-80
2024/03/21 07:39:43;;;;;;;83.30;47.05;;;10.70;99.90;;;;;;4967413;28;20027;-80
2024/03/21 07:42:09;;;;;;;89.47;51.72;;;10.70;99.90;;;;;;4960952;28;20167;-80
2024/03/21 07:44:35;;;;;;;86.60;48.72;;;10.80;99.90;;;;;;4953503;28;20023;-80
2024/03/21 07:47:01;;;;;;;77.05;46.10;;;10.80;99.90;;;;;;4966284;28;20034;-79
2024/03/21 07:49:26;;;;;;;82.03;47.58;;;10.80;99.90;;;;;;4972376;28;20050;-79
2024/03/21 07:51:52;;;;;;;85.50;50.65;;;10.80;99.90;;;;;;4979885;28;20054;-79
2024/03/21 07:54:18;;;;;;;78.45;45.88;;;10.80;99.90;;;;;;4955136;28;20039;-79
2024/03/21 07:56:43;;;;;;;78.90;44.85;;;10.80;99.90;;;;;;4972052;28;20034;-80
2024/03/21 07:59:09;;;;;;;72.65;43.88;;;10.80;99.90;;;;;;4968598;28;20035;-79
2024/03/21 08:01:40;;;;;;;76.50;44.30;;;10.90;99.90;;;;;;4978560;28;20509;-80
2024/03/21 08:04:08;;;;;;;78.68;48.97;;;10.90;99.90;;;;;;4958035;28;20501;-79
2024/03/21 08:06:33;;;;;;;81.53;48.67;;;10.90;99.90;;;;;;4971339;28;20102;-80
2024/03/21 08:08:59;;;;;;;88.00;49.15;;;10.80;99.90;;;;;;4958779;28;20050;-80
2024/03/21 08:11:25;;;;;;;80.72;49.33;;;10.90;99.90;;;;;;4954722;28;20038;-79
2024/03/21 08:13:51;;;;;;;79.60;47.08;;;10.90;99.90;;;;;;4975939;28;20116;-79
2024/03/21 08:16:17;;;;;;;79.05;48.15;;;11.00;99.90;;;;;;4974566;28;20533;-80
2024/03/21 08:18:42;;;;;;;81.00;49.45;;;11.00;99.90;;;;;;4979793;28;20027;-79
2024/03/21 08:21:08;;;;;;;76.78;46.53;;;11.00;99.90;;;;;;4962929;28;20038;-80
2024/03/21 08:23:33;;;;;;;82.03;47.00;;;11.00;99.90;;;;;;4980593;28;20053;-79
2024/03/21 08:26:05;;;;;;;79.72;46.50;;;11.00;99.90;;;;;;4968453;28;20069;-79
2024/03/21 08:28:32;;;;;;;74.32;45.08;;;11.10;99.90;;;;;;4967339;28;20462;-79
2024/03/21 08:30:57;;;;;;;74.00;42.13;;;11.10;99.90;;;;;;4975436;28;20046;-79
2024/03/21 08:33:24;;;;;;;77.25;44.88;;;11.10;99.90;;;;;;4965030;28;20428;-79
2024/03/21 08:35:53;;;;;;;74.35;43.45;;;11.20;99.90;;;;;;4964612;28;20035;-79
2024/03/21 08:38:19;;;;;;;74.88;44.78;;;11.20;99.90;;;;;;4960886;28;20027;-79
2024/03/21 08:40:52;;;;;;;77.50;44.92;;;11.20;99.90;;;;;;4968536;28;20035;-80
2024/03/21 08:43:18;;;;;;;74.68;44.25;;;11.30;99.90;;;;;;4974243;28;20042;-80
2024/03/21 08:45:45;;;;;;;68.40;42.05;;;11.30;99.90;;;;;;4974716;28;20019;-80
2024/03/21 08:48:13;;;;;;;56.13;35.45;;;11.30;99.90;;;;;;4981408;28;20026;-80
2024/03/21 08:50:39;;;;;;;48.88;28.85;;;11.30;99.90;;;;;;4969935;28;20050;-80
2024/03/21 08:53:05;;;;;;;38.33;24.95;;;11.30;99.90;;;;;;4967541;28;20023;-79
2024/03/21 08:55:34;;;;;;;38.33;23.88;;;11.30;99.90;;;;;;4976516;28;20035;-79
2024/03/21 08:58:00;;;;;;;33.65;22.35;;;11.50;99.90;;;;;;4978453;28;20442;-80
2024/03/21 09:00:26;;;;;;;32.05;22.27;;;11.50;99.90;;;;;;4970733;28;20514;-78
2024/03/21 09:02:52;;;;;;;31.10;21.77;;;11.90;99.90;;;;;;4961701;28;20031;-79
2024/03/21 09:05:18;;;;;;;28.13;18.02;;;12.40;99.90;;;;;;4990161;28;20490;-81
2024/03/21 09:07:44;;;;;;;24.52;15.68;;;12.80;99.90;;;;;;4978494;28;20026;-80
2024/03/21 09:10:10;;;;;;;22.75;15.32;;;12.90;99.90;;;;;;4967510;28;20042;-80
2024/03/21 09:12:37;;;;;;;21.05;15.77;;;13.00;99.90;;;;;;4969971;28;20026;-79
2024/03/21 09:15:04;;;;;;;18.00;13.07;;;13.10;99.90;;;;;;4987097;28;20046;-80
2024/03/21 09:17:29;;;;;;;15.52;11.55;;;13.10;99.90;;;;;;4987703;28;20038;-80
2024/03/21 09:19:56;;;;;;;15.52;11.10;;;13.00;99.90;;;;;;4967363;28;20031;-81
2024/03/21 09:22:22;;;;;;;14.93;10.77;;;13.10;99.90;;;;;;4975105;28;20038;-79
2024/03/21 09:24:48;;;;;;;14.63;10.73;;;13.10;99.90;;;;;;4971643;28;20042;-79
2024/03/21 09:27:13;;;;;;;14.13;10.75;;;13.10;99.90;;;;;;4987484;28;20027;-79
2024/03/21 09:29:39;;;;;;;13.68;10.57;;;13.00;99.90;;;;;;4960256;28;20046;-79
2024/03/21 09:32:06;;;;;;;12.23;9.75;;;12.80;99.90;;;;;;4974990;28;20102;-79
2024/03/21 09:34:31;;;;;;;14.07;10.38;;;12.50;99.90;;;;;;4966424;28;20030;-79
2024/03/21 09:36:57;;;;;;;16.48;11.60;;;12.20;99.90;;;;;;4955844;28;20023;-79
2024/03/21 09:39:23;;;;;;;15.70;10.95;;;12.00;99.90;;;;;;4954464;28;20019;-78
2024/03/21 09:41:53;;;;;;;13.18;10.18;;;11.80;99.90;;;;;;4967131;28;20089;-79
2024/03/21 09:44:19;;;;;;;15.57;10.10;;;11.90;99.90;;;;;;4967189;28;20519;-80
2024/03/21 09:46:47;;;;;;;12.82;9.65;;;12.30;99.90;;;;;;4963911;28;20035;-79
2024/03/21 09:49:14;;;;;;;10.75;8.45;;;14.00;99.90;;;;;;4969288;28;20033;-80
2024/03/21 09:51:42;;;;;;;9.80;7.70;;;15.80;99.90;;;;;;4973632;28;20023;-77
2024/03/21 09:54:10;;;;;;;8.50;7.47;;;17.10;99.90;;;;;;4964681;28;20019;-78
2024/03/21 09:56:36;;;;;;;8.10;6.03;;;18.50;99.90;;;;;;4965689;28;20027;-77
2024/03/21 09:59:02;;;;;;;5.55;4.88;;;19.80;97.80;;;;;;4969786;28;20027;-76
2024/03/21 10:01:28;;;;;;;5.32;4.82;;;21.20;94.20;;;;;;4980098;28;20319;-76
2024/03/21 10:03:57;;;;;;;4.78;4.25;;;21.20;92.70;;;;;;4982930;28;20516;-76
2024/03/21 10:06:24;;;;;;;5.32;4.03;;;20.90;91.80;;;;;;4971489;28;20038;-75
2024/03/21 10:08:51;;;;;;;5.35;4.85;;;20.10;91.90;;;;;;4974980;28;20011;-76
2024/03/21 10:11:20;;;;;;;5.97;5.18;;;19.00;92.30;;;;;;4963059;28;20023;-76
2024/03/21 10:13:49;;;;;;;5.93;5.43;;;17.90;94.00;;;;;;4961264;28;20027;-75
2024/03/21 10:16:20;;;;;;;7.75;6.35;;;16.60;95.60;;;;;;4976841;28;20027;-75
2024/03/21 10:18:45;;;;;;;7.50;6.70;;;15.40;98.20;;;;;;4969503;28;20106;-77
2024/03/21 10:21:16;;;;;;;10.73;6.85;;;14.60;99.90;;;;;;4970761;28;20084;-78
2024/03/21 10:23:42;;;;;;;8.43;6.70;;;13.90;99.90;;;;;;4962789;28;20027;-77
2024/03/21 10:26:17;;;;;;;10.27;7.53;;;13.50;99.90;;;;;;4964218;28;20110;-75
2024/03/21 10:28:46;;;;;;;9.40;7.25;;;13.20;99.90;;;;;;4984771;28;20389;-79
2024/03/21 10:31:14;;;;;;;11.05;8.55;;;12.80;99.90;;;;;;4968845;28;20030;-75
2024/03/21 10:34:01;;;;;;;10.10;8.18;;;12.60;99.90;;;;;;4970531;28;20027;-75
2024/03/21 10:36:36;;;;;;;13.43;10.00;;;12.20;99.90;;;;;;4966635;28;20042;-77
2024/03/21 10:39:01;;;;;;;12.32;8.52;;;11.80;99.90;;;;;;4986500;28;20121;-77
2024/03/21 10:41:31;;;;;;;13.65;10.32;;;11.60;99.90;;;;;;4973140;28;20120;-77
2024/03/21 10:44:00;;;;;;;15.75;9.60;;;11.50;99.90;;;;;;4987937;28;20471;-77
2024/03/21 10:46:29;;;;;;;17.80;10.02;;;11.20;99.90;;;;;;4968636;28;20045;-78
2024/03/21 10:49:00;;;;;;;14.43;10.60;;;11.00;99.90;;;;;;4985496;28;20110;-77
2024/03/21 10:51:25;;;;;;;17.02;9.95;;;10.70;99.90;;;;;;4967811;28;20030;-76
2024/03/21 10:53:59;;;;;;;16.17;9.55;;;10.60;99.90;;;;;;4960578;28;20387;-76
2024/03/21 10:56:36;;;;;;;14.27;9.02;;;10.50;99.90;;;;;;4956841;28;20402;-76
2024/03/21 10:59:03;;;;;;;12.88;7.80;;;10.30;99.90;;;;;;4965770;28;20113;-76
2024/03/21 11:01:39;;;;;;;11.15;7.82;;;10.20;99.90;;;;;;4970199;28;20081;-79
2024/03/21 11:04:07;;;;;;;11.05;7.43;;;10.10;99.90;;;;;;4981381;28;20065;-78
2024/03/21 11:06:34;;;;;;;12.35;7.10;;;10.00;99.90;;;;;;4962175;28;20029;-77
2024/03/21 11:09:01;;;;;;;13.75;7.53;;;9.90;99.90;;;;;;4975096;28;20748;-77
2024/03/21 11:11:29;;;;;;;13.55;6.75;;;9.80;99.90;;;;;;4984439;28;20029;-77
2024/03/21 11:14:01;;;;;;;13.38;7.03;;;9.90;99.90;;;;;;4961772;28;20034;-79
2024/03/21 11:16:31;;;;;;;11.20;7.03;;;10.00;99.90;;;;;;4975806;28;20489;-79
2024/03/21 11:18:59;;;;;;;9.88;6.15;;;10.10;99.90;;;;;;4985817;28;20141;-77
2024/03/21 11:21:25;;;;;;;10.30;6.53;;;10.10;99.90;;;;;;4965673;28;20085;-74
2024/03/21 11:23:54;;;;;;;11.05;6.50;;;10.10;99.90;;;;;;4978889;28;20031;-73
2024/03/21 11:26:20;;;;;;;9.90;5.78;;;10.20;99.90;;;;;;4969578;28;20038;-74
2024/03/21 11:28:50;;;;;;;12.98;6.32;;;10.20;99.90;;;;;;4964351;28;20065;-74
2024/03/21 11:31:19;;;;;;;11.95;6.25;;;10.20;99.90;;;;;;4979192;28;20034;-74
2024/03/21 11:33:46;;;;;;;8.80;4.93;;;10.10;99.90;;;;;;4962902;28;20031;-74
2024/03/21 11:36:15;;;;;;;11.95;5.60;;;10.10;99.90;;;;;;4965511;28;20032;-75
2024/03/21 11:38:42;;;;;;;6.18;4.15;;;10.10;99.90;;;;;;4972358;28;20049;-76
2024/03/21 11:41:20;;;;;;;11.65;5.57;;;10.20;99.90;;;;;;4969576;28;20031;-75
2024/03/21 11:43:49;;;;;;;8.52;5.38;;;10.30;99.90;;;;;;4960364;28;20398;-75
2024/03/21 11:46:15;;;;;;;9.88;4.97;;;10.30;99.90;;;;;;4959253;28;20475;-75
2024/03/21 11:48:41;;;;;;;8.40;5.72;;;10.30;99.90;;;;;;4964660;28;20050;-75
2024/03/21 11:51:15;;;;;;;9.20;5.82;;;10.30;99.90;;;;;;4963411;28;20023;-76
2024/03/21 11:53:41;;;;;;;10.02;5.82;;;10.30;99.90;;;;;;4976816;28;20027;-76
2024/03/21 11:56:06;;;;;;;9.20;6.65;;;10.20;99.90;;;;;;4968238;28;20026;-76
2024/03/21 11:58:32;;;;;;;8.20;6.55;;;10.20;99.90;;;;;;4981251;28;20121;-76
2024/03/21 12:00:58;;;;;;;8.40;5.97;;;10.10;99.90;;;;;;4968669;28;20031;-75
2024/03/21 12:03:24;;;;;;;12.70;6.97;;;10.00;99.90;;;;;;4947455;28;20035;-75
2024/03/21 12:05:53;;;;;;;9.98;6.75;;;10.00;99.90;;;;;;4978880;28;20398;-76
2024/03/21 12:08:20;;;;;;;10.93;6.85;;;9.90;99.90;;;;;;4959326;28;20438;-76
2024/03/21 12:10:46;;;;;;;13.85;8.02;;;9.90;99.90;;;;;;4982956;28;20027;-76
2024/03/21 12:13:17;;;;;;;14.45;8.10;;;9.90;99.90;;;;;;4958777;28;20514;-77
2024/03/21 12:15:43;;;;;;;17.02;8.57;;;9.90;99.90;;;;;;4962392;28;20035;-76
2024/03/21 12:18:09;;;;;;;12.95;8.10;;;9.80;99.90;;;;;;4976830;28;20023;-79
2024/03/21 12:20:38;;;;;;;14.93;9.25;;;9.70;99.90;;;;;;4967604;28;20114;-79
2024/03/21 12:23:04;;;;;;;13.10;7.70;;;9.70;99.90;;;;;;4985048;28;20031;-79
2024/03/21 12:25:30;;;;;;;17.30;9.18;;;9.60;99.90;;;;;;4968625;28;20172;-80
2024/03/21 12:27:56;;;;;;;19.30;8.90;;;9.60;99.90;;;;;;4962380;28;20479;-79
2024/03/21 12:30:22;;;;;;;13.85;8.85;;;9.60;99.90;;;;;;4961270;28;20028;-79
2024/03/21 12:32:47;;;;;;;15.60;9.23;;;9.60;99.90;;;;;;4987749;28;20027;-80
2024/03/21 12:35:13;;;;;;;18.65;8.90;;;9.60;99.90;;;;;;4974597;28;20116;-80